sensor_id;sensor_type;location;lat;lon;timestamp;P1;durP1;ratioP1;P2;durP2;ratioP2
51521;SDS011;37608;39.766;2.718;2022-08-19T00:00:02;4.57;;;1.52;;
51521;SDS011;37608;39.766;2.718;2022-08-19T00:02:30;8.73;;;2.80;;
51521;SDS011;37608;39.766;2.718;2022-08-19T00:04:55;2.28;;;1.40;;
51521;SDS011;37608;39.766;2.718;2022-08-19T00:07:21;3.60;;;0.85;;
51521;SDS011;37608;39.766;2.718;2022-08-19T00:09:46;3.35;;;1.67;;
51521;SDS011;37608;39.766;2.718;2022-08-19T00:12:11;3.30;;;1.20;;
51521;SDS011;37608;39.766;2.718;2022-08-19T00:14:37;3.33;;;1.17;;
51521;SDS011;37608;39.766;2.718;2022-08-19T00:17:03;3.70;;;1.38;;
51521;SDS011;37608;39.766;2.718;2022-08-19T00:19:29;1.85;;;1.17;;
51521;SDS011;37608;39.766;2.718;2022-08-19T00:21:55;1.42;;;1.23;;
51521;SDS011;37608;39.766;2.718;2022-08-19T00:24:21;4.47;;;1.55;;
51521;SDS011;37608;39.766;2.718;2022-08-19T00:26:47;5.85;;;1.75;;
51521;SDS011;37608;39.766;2.718;2022-08-19T00:29:13;2.70;;;1.58;;
51521;SDS011;37608;39.766;2.718;2022-08-19T00:31:40;1.70;;;0.90;;
51521;SDS011;37608;39.766;2.718;2022-08-19T00:34:06;3.47;;;1.00;;
51521;SDS011;37608;39.766;2.718;2022-08-19T00:36:32;3.67;;;1.95;;
51521;SDS011;37608;39.766;2.718;2022-08-19T00:38:58;3.30;;;1.20;;
51521;SDS011;37608;39.766;2.718;2022-08-19T00:41:24;1.83;;;0.73;;
51521;SDS011;37608;39.766;2.718;2022-08-19T00:44:04;25.73;;;3.90;;
51521;SDS011;37608;39.766;2.718;2022-08-19T00:46:30;10.52;;;2.22;;
51521;SDS011;37608;39.766;2.718;2022-08-19T00:48:57;3.45;;;1.23;;
51521;SDS011;37608;39.766;2.718;2022-08-19T00:51:24;2.45;;;1.85;;
51521;SDS011;37608;39.766;2.718;2022-08-19T00:53:51;3.22;;;1.13;;
51521;SDS011;37608;39.766;2.718;2022-08-19T00:56:17;4.03;;;1.20;;
51521;SDS011;37608;39.766;2.718;2022-08-19T00:58:43;3.92;;;0.80;;
51521;SDS011;37608;39.766;2.718;2022-08-19T01:01:08;0.73;;;0.63;;
51521;SDS011;37608;39.766;2.718;2022-08-19T01:03:34;2.88;;;0.70;;
51521;SDS011;37608;39.766;2.718;2022-08-19T01:05:59;10.18;;;0.68;;
51521;SDS011;37608;39.766;2.718;2022-08-19T01:08:25;3.22;;;1.02;;
51521;SDS011;37608;39.766;2.718;2022-08-19T01:10:59;12.73;;;2.03;;
51521;SDS011;37608;39.766;2.718;2022-08-19T01:13:29;2.28;;;1.27;;
51521;SDS011;37608;39.766;2.718;2022-08-19T01:15:56;9.18;;;2.08;;
51521;SDS011;37608;39.766;2.718;2022-08-19T01:18:22;4.28;;;1.48;;
51521;SDS011;37608;39.766;2.718;2022-08-19T01:20:48;4.68;;;1.77;;
51521;SDS011;37608;39.766;2.718;2022-08-19T01:23:14;6.85;;;1.15;;
51521;SDS011;37608;39.766;2.718;2022-08-19T01:25:50;3.40;;;0.85;;
51521;SDS011;37608;39.766;2.718;2022-08-19T01:28:20;3.83;;;1.00;;
51521;SDS011;37608;39.766;2.718;2022-08-19T01:30:46;2.65;;;1.45;;
51521;SDS011;37608;39.766;2.718;2022-08-19T01:33:11;1.00;;;0.50;;
51521;SDS011;37608;39.766;2.718;2022-08-19T01:35:37;2.80;;;0.75;;
51521;SDS011;37608;39.766;2.718;2022-08-19T01:38:03;5.03;;;1.17;;
51521;SDS011;37608;39.766;2.718;2022-08-19T01:40:32;4.95;;;1.00;;
51521;SDS011;37608;39.766;2.718;2022-08-19T01:42:59;3.70;;;1.30;;
51521;SDS011;37608;39.766;2.718;2022-08-19T01:45:25;2.53;;;0.82;;
51521;SDS011;37608;39.766;2.718;2022-08-19T01:47:51;3.67;;;0.93;;
51521;SDS011;37608;39.766;2.718;2022-08-19T01:50:16;1.83;;;1.10;;
51521;SDS011;37608;39.766;2.718;2022-08-19T01:52:42;5.53;;;1.45;;
51521;SDS011;37608;39.766;2.718;2022-08-19T01:55:11;4.93;;;1.00;;
51521;SDS011;37608;39.766;2.718;2022-08-19T01:57:37;1.10;;;0.70;;
51521;SDS011;37608;39.766;2.718;2022-08-19T02:00:06;2.83;;;1.08;;
51521;SDS011;37608;39.766;2.718;2022-08-19T02:02:32;2.00;;;1.05;;
51521;SDS011;37608;39.766;2.718;2022-08-19T02:04:58;9.50;;;1.50;;
51521;SDS011;37608;39.766;2.718;2022-08-19T02:07:23;3.47;;;1.88;;
51521;SDS011;37608;39.766;2.718;2022-08-19T02:09:49;4.68;;;0.80;;
51521;SDS011;37608;39.766;2.718;2022-08-19T02:12:14;3.30;;;0.85;;
51521;SDS011;37608;39.766;2.718;2022-08-19T02:14:39;1.15;;;0.88;;
51521;SDS011;37608;39.766;2.718;2022-08-19T02:17:05;6.18;;;2.20;;
51521;SDS011;37608;39.766;2.718;2022-08-19T02:19:30;5.90;;;1.20;;
51521;SDS011;37608;39.766;2.718;2022-08-19T02:21:58;3.33;;;1.20;;
51521;SDS011;37608;39.766;2.718;2022-08-19T02:24:23;2.40;;;0.95;;
51521;SDS011;37608;39.766;2.718;2022-08-19T02:26:48;1.48;;;0.70;;
51521;SDS011;37608;39.766;2.718;2022-08-19T02:29:14;4.03;;;1.40;;
51521;SDS011;37608;39.766;2.718;2022-08-19T02:31:39;2.15;;;1.00;;
51521;SDS011;37608;39.766;2.718;2022-08-19T02:34:04;3.20;;;1.58;;
51521;SDS011;37608;39.766;2.718;2022-08-19T02:36:30;3.58;;;1.08;;
51521;SDS011;37608;39.766;2.718;2022-08-19T02:38:55;1.17;;;0.60;;
51521;SDS011;37608;39.766;2.718;2022-08-19T02:41:31;0.82;;;0.75;;
51521;SDS011;37608;39.766;2.718;2022-08-19T02:43:57;9.93;;;2.33;;
51521;SDS011;37608;39.766;2.718;2022-08-19T02:46:28;2.50;;;1.13;;
51521;SDS011;37608;39.766;2.718;2022-08-19T02:51:21;2.45;;;0.88;;
51521;SDS011;37608;39.766;2.718;2022-08-19T02:53:47;2.25;;;1.17;;
51521;SDS011;37608;39.766;2.718;2022-08-19T02:56:12;2.05;;;0.95;;
51521;SDS011;37608;39.766;2.718;2022-08-19T02:58:37;5.07;;;1.23;;
51521;SDS011;37608;39.766;2.718;2022-08-19T03:01:03;3.58;;;0.77;;
51521;SDS011;37608;39.766;2.718;2022-08-19T03:03:28;1.33;;;0.95;;
51521;SDS011;37608;39.766;2.718;2022-08-19T03:06:13;1.58;;;0.55;;
51521;SDS011;37608;39.766;2.718;2022-08-19T03:08:39;10.52;;;1.02;;
51521;SDS011;37608;39.766;2.718;2022-08-19T03:11:05;3.20;;;1.10;;
51521;SDS011;37608;39.766;2.718;2022-08-19T03:13:31;3.33;;;0.90;;
51521;SDS011;37608;39.766;2.718;2022-08-19T03:15:56;3.50;;;0.85;;
51521;SDS011;37608;39.766;2.718;2022-08-19T03:18:22;3.53;;;1.52;;
51521;SDS011;37608;39.766;2.718;2022-08-19T03:20:48;1.38;;;0.70;;
51521;SDS011;37608;39.766;2.718;2022-08-19T03:23:15;7.85;;;2.05;;
51521;SDS011;37608;39.766;2.718;2022-08-19T03:25:41;1.13;;;0.73;;
51521;SDS011;37608;39.766;2.718;2022-08-19T03:28:09;13.40;;;1.95;;
51521;SDS011;37608;39.766;2.718;2022-08-19T03:30:34;5.03;;;1.65;;
51521;SDS011;37608;39.766;2.718;2022-08-19T03:32:59;2.17;;;1.35;;
51521;SDS011;37608;39.766;2.718;2022-08-19T03:35:25;3.72;;;0.98;;
51521;SDS011;37608;39.766;2.718;2022-08-19T03:37:50;4.47;;;1.38;;
51521;SDS011;37608;39.766;2.718;2022-08-19T03:40:15;4.35;;;1.27;;
51521;SDS011;37608;39.766;2.718;2022-08-19T03:42:41;10.20;;;1.17;;
51521;SDS011;37608;39.766;2.718;2022-08-19T03:45:07;3.03;;;0.63;;
51521;SDS011;37608;39.766;2.718;2022-08-19T03:47:32;8.48;;;1.52;;
51521;SDS011;37608;39.766;2.718;2022-08-19T03:49:58;5.40;;;1.60;;
51521;SDS011;37608;39.766;2.718;2022-08-19T03:52:23;10.55;;;1.48;;
51521;SDS011;37608;39.766;2.718;2022-08-19T03:54:49;1.63;;;0.90;;
51521;SDS011;37608;39.766;2.718;2022-08-19T03:57:14;2.55;;;1.42;;
51521;SDS011;37608;39.766;2.718;2022-08-19T03:59:39;2.80;;;1.17;;
51521;SDS011;37608;39.766;2.718;2022-08-19T04:02:06;4.80;;;2.38;;
51521;SDS011;37608;39.766;2.718;2022-08-19T04:04:33;1.20;;;0.70;;
51521;SDS011;37608;39.766;2.718;2022-08-19T04:06:59;3.63;;;2.13;;
51521;SDS011;37608;39.766;2.718;2022-08-19T04:09:24;4.13;;;1.70;;
51521;SDS011;37608;39.766;2.718;2022-08-19T04:11:54;3.03;;;1.30;;
51521;SDS011;37608;39.766;2.718;2022-08-19T04:14:21;5.22;;;1.52;;
51521;SDS011;37608;39.766;2.718;2022-08-19T04:16:47;1.63;;;0.95;;
51521;SDS011;37608;39.766;2.718;2022-08-19T04:19:13;3.05;;;1.35;;
51521;SDS011;37608;39.766;2.718;2022-08-19T04:21:39;2.17;;;1.23;;
51521;SDS011;37608;39.766;2.718;2022-08-19T04:24:05;2.55;;;1.40;;
51521;SDS011;37608;39.766;2.718;2022-08-19T04:26:32;4.68;;;1.63;;
51521;SDS011;37608;39.766;2.718;2022-08-19T04:28:58;1.85;;;1.52;;
51521;SDS011;37608;39.766;2.718;2022-08-19T04:31:25;2.85;;;1.33;;
51521;SDS011;37608;39.766;2.718;2022-08-19T04:33:54;10.70;;;2.13;;
51521;SDS011;37608;39.766;2.718;2022-08-19T04:36:24;3.80;;;0.95;;
51521;SDS011;37608;39.766;2.718;2022-08-19T04:38:52;1.80;;;0.73;;
51521;SDS011;37608;39.766;2.718;2022-08-19T04:41:17;2.95;;;1.38;;
51521;SDS011;37608;39.766;2.718;2022-08-19T04:44:01;3.22;;;1.27;;
51521;SDS011;37608;39.766;2.718;2022-08-19T04:46:27;1.90;;;1.42;;
51521;SDS011;37608;39.766;2.718;2022-08-19T04:48:55;8.25;;;2.10;;
51521;SDS011;37608;39.766;2.718;2022-08-19T04:51:22;7.40;;;1.33;;
51521;SDS011;37608;39.766;2.718;2022-08-19T04:53:47;8.52;;;2.90;;
51521;SDS011;37608;39.766;2.718;2022-08-19T04:56:13;17.50;;;1.40;;
51521;SDS011;37608;39.766;2.718;2022-08-19T04:58:40;6.72;;;1.75;;
51521;SDS011;37608;39.766;2.718;2022-08-19T05:01:07;25.27;;;23.27;;
51521;SDS011;37608;39.766;2.718;2022-08-19T05:03:33;12.13;;;8.38;;
51521;SDS011;37608;39.766;2.718;2022-08-19T05:06:06;6.10;;;2.58;;
51521;SDS011;37608;39.766;2.718;2022-08-19T05:08:32;3.20;;;1.15;;
51521;SDS011;37608;39.766;2.718;2022-08-19T05:10:58;6.20;;;1.90;;
51521;SDS011;37608;39.766;2.718;2022-08-19T05:13:25;9.70;;;5.20;;
51521;SDS011;37608;39.766;2.718;2022-08-19T05:15:55;4.55;;;1.95;;
51521;SDS011;37608;39.766;2.718;2022-08-19T05:18:21;11.88;;;1.75;;
51521;SDS011;37608;39.766;2.718;2022-08-19T05:21:06;3.22;;;1.58;;
51521;SDS011;37608;39.766;2.718;2022-08-19T05:23:50;4.72;;;4.22;;
51521;SDS011;37608;39.766;2.718;2022-08-19T05:26:15;3.53;;;2.22;;
51521;SDS011;37608;39.766;2.718;2022-08-19T05:28:41;4.20;;;2.22;;
51521;SDS011;37608;39.766;2.718;2022-08-19T05:31:06;39.50;;;29.45;;
51521;SDS011;37608;39.766;2.718;2022-08-19T05:33:31;2.35;;;2.08;;
51521;SDS011;37608;39.766;2.718;2022-08-19T05:35:56;6.72;;;1.58;;
51521;SDS011;37608;39.766;2.718;2022-08-19T05:38:22;2.05;;;1.13;;
51521;SDS011;37608;39.766;2.718;2022-08-19T05:40:47;4.30;;;2.08;;
51521;SDS011;37608;39.766;2.718;2022-08-19T05:43:14;3.78;;;1.60;;
51521;SDS011;37608;39.766;2.718;2022-08-19T05:45:43;4.47;;;1.67;;
51521;SDS011;37608;39.766;2.718;2022-08-19T05:48:12;3.50;;;1.48;;
51521;SDS011;37608;39.766;2.718;2022-08-19T05:50:38;3.75;;;2.90;;
51521;SDS011;37608;39.766;2.718;2022-08-19T05:53:04;8.55;;;2.95;;
51521;SDS011;37608;39.766;2.718;2022-08-19T05:55:29;3.47;;;1.50;;
51521;SDS011;37608;39.766;2.718;2022-08-19T05:57:54;3.88;;;2.38;;
51521;SDS011;37608;39.766;2.718;2022-08-19T06:00:20;14.93;;;2.47;;
51521;SDS011;37608;39.766;2.718;2022-08-19T06:02:45;16.42;;;9.73;;
51521;SDS011;37608;39.766;2.718;2022-08-19T06:05:10;6.03;;;1.67;;
51521;SDS011;37608;39.766;2.718;2022-08-19T06:07:36;2.47;;;1.73;;
51521;SDS011;37608;39.766;2.718;2022-08-19T06:10:03;2.72;;;1.42;;
51521;SDS011;37608;39.766;2.718;2022-08-19T06:12:30;5.22;;;2.70;;
51521;SDS011;37608;39.766;2.718;2022-08-19T06:14:59;7.97;;;1.40;;
51521;SDS011;37608;39.766;2.718;2022-08-19T06:17:24;6.28;;;2.63;;
51521;SDS011;37608;39.766;2.718;2022-08-19T06:19:51;6.78;;;1.55;;
51521;SDS011;37608;39.766;2.718;2022-08-19T06:22:16;5.45;;;2.13;;
51521;SDS011;37608;39.766;2.718;2022-08-19T06:24:42;6.93;;;2.80;;
51521;SDS011;37608;39.766;2.718;2022-08-19T06:27:07;13.85;;;5.60;;
51521;SDS011;37608;39.766;2.718;2022-08-19T06:29:33;15.95;;;13.98;;
51521;SDS011;37608;39.766;2.718;2022-08-19T06:31:59;33.65;;;22.05;;
51521;SDS011;37608;39.766;2.718;2022-08-19T06:34:25;54.72;;;27.02;;
51521;SDS011;37608;39.766;2.718;2022-08-19T06:36:52;48.60;;;32.10;;
51521;SDS011;37608;39.766;2.718;2022-08-19T06:39:23;31.67;;;18.27;;
51521;SDS011;37608;39.766;2.718;2022-08-19T06:44:14;20.65;;;16.40;;
51521;SDS011;37608;39.766;2.718;2022-08-19T06:46:40;33.78;;;18.80;;
51521;SDS011;37608;39.766;2.718;2022-08-19T06:49:05;21.88;;;17.27;;
51521;SDS011;37608;39.766;2.718;2022-08-19T06:51:31;24.10;;;19.92;;
51521;SDS011;37608;39.766;2.718;2022-08-19T06:53:59;26.05;;;20.40;;
51521;SDS011;37608;39.766;2.718;2022-08-19T06:56:26;22.80;;;19.80;;
51521;SDS011;37608;39.766;2.718;2022-08-19T06:58:59;26.67;;;20.08;;
51521;SDS011;37608;39.766;2.718;2022-08-19T07:01:25;35.65;;;28.27;;
51521;SDS011;37608;39.766;2.718;2022-08-19T07:03:50;32.65;;;28.73;;
51521;SDS011;37608;39.766;2.718;2022-08-19T07:06:16;45.97;;;25.10;;
51521;SDS011;37608;39.766;2.718;2022-08-19T07:08:43;32.97;;;17.58;;
51521;SDS011;37608;39.766;2.718;2022-08-19T07:11:09;9.77;;;8.55;;
51521;SDS011;37608;39.766;2.718;2022-08-19T07:13:35;6.75;;;4.43;;
51521;SDS011;37608;39.766;2.718;2022-08-19T07:16:06;9.80;;;4.28;;
51521;SDS011;37608;39.766;2.718;2022-08-19T07:18:32;18.63;;;5.38;;
51521;SDS011;37608;39.766;2.718;2022-08-19T07:21:07;11.02;;;9.95;;
51521;SDS011;37608;39.766;2.718;2022-08-19T07:23:33;9.00;;;7.30;;
51521;SDS011;37608;39.766;2.718;2022-08-19T07:26:03;9.23;;;6.43;;
51521;SDS011;37608;39.766;2.718;2022-08-19T07:28:29;9.52;;;7.90;;
51521;SDS011;37608;39.766;2.718;2022-08-19T07:30:54;9.82;;;5.85;;
51521;SDS011;37608;39.766;2.718;2022-08-19T07:33:19;19.05;;;13.90;;
51521;SDS011;37608;39.766;2.718;2022-08-19T07:35:45;17.48;;;12.48;;
51521;SDS011;37608;39.766;2.718;2022-08-19T07:38:10;25.58;;;18.63;;
51521;SDS011;37608;39.766;2.718;2022-08-19T07:40:36;103.05;;;79.95;;
51521;SDS011;37608;39.766;2.718;2022-08-19T07:43:01;68.13;;;49.40;;
51521;SDS011;37608;39.766;2.718;2022-08-19T07:45:26;61.90;;;49.55;;
51521;SDS011;37608;39.766;2.718;2022-08-19T07:47:53;75.95;;;54.63;;
51521;SDS011;37608;39.766;2.718;2022-08-19T07:50:20;92.63;;;57.67;;
51521;SDS011;37608;39.766;2.718;2022-08-19T07:52:45;82.32;;;73.93;;
51521;SDS011;37608;39.766;2.718;2022-08-19T07:55:11;90.85;;;75.80;;
51521;SDS011;37608;39.766;2.718;2022-08-19T07:57:37;73.05;;;58.08;;
51521;SDS011;37608;39.766;2.718;2022-08-19T08:00:04;42.35;;;35.92;;
51521;SDS011;37608;39.766;2.718;2022-08-19T08:02:29;50.10;;;40.20;;
51521;SDS011;37608;39.766;2.718;2022-08-19T08:04:54;28.88;;;17.38;;
51521;SDS011;37608;39.766;2.718;2022-08-19T08:07:40;13.98;;;10.13;;
51521;SDS011;37608;39.766;2.718;2022-08-19T08:10:24;8.18;;;3.97;;
51521;SDS011;37608;39.766;2.718;2022-08-19T08:12:50;14.80;;;5.18;;
51521;SDS011;37608;39.766;2.718;2022-08-19T08:15:16;2.72;;;1.75;;
51521;SDS011;37608;39.766;2.718;2022-08-19T08:17:42;2.75;;;1.77;;
51521;SDS011;37608;39.766;2.718;2022-08-19T08:20:07;3.97;;;1.65;;
51521;SDS011;37608;39.766;2.718;2022-08-19T08:22:33;10.90;;;3.17;;
51521;SDS011;37608;39.766;2.718;2022-08-19T08:25:18;5.68;;;3.83;;
51521;SDS011;37608;39.766;2.718;2022-08-19T08:27:45;8.20;;;3.55;;
51521;SDS011;37608;39.766;2.718;2022-08-19T08:30:12;20.35;;;4.43;;
51521;SDS011;37608;39.766;2.718;2022-08-19T08:32:39;7.55;;;3.67;;
51521;SDS011;37608;39.766;2.718;2022-08-19T08:35:05;11.35;;;2.95;;
51521;SDS011;37608;39.766;2.718;2022-08-19T08:37:31;2.42;;;1.13;;
51521;SDS011;37608;39.766;2.718;2022-08-19T08:39:56;1.15;;;0.85;;
51521;SDS011;37608;39.766;2.718;2022-08-19T08:42:24;5.75;;;1.55;;
51521;SDS011;37608;39.766;2.718;2022-08-19T08:47:18;7.82;;;2.63;;
51521;SDS011;37608;39.766;2.718;2022-08-19T08:49:46;2.60;;;2.13;;
51521;SDS011;37608;39.766;2.718;2022-08-19T08:52:18;7.25;;;1.20;;
51521;SDS011;37608;39.766;2.718;2022-08-19T08:54:46;3.17;;;1.52;;
51521;SDS011;37608;39.766;2.718;2022-08-19T08:57:12;7.78;;;1.42;;
51521;SDS011;37608;39.766;2.718;2022-08-19T08:59:39;0.77;;;0.60;;
51521;SDS011;37608;39.766;2.718;2022-08-19T09:02:06;4.88;;;2.13;;
51521;SDS011;37608;39.766;2.718;2022-08-19T09:04:33;3.38;;;2.30;;
51521;SDS011;37608;39.766;2.718;2022-08-19T09:11:52;8.25;;;2.33;;
51521;SDS011;37608;39.766;2.718;2022-08-19T09:16:58;6.55;;;3.15;;
51521;SDS011;37608;39.766;2.718;2022-08-19T09:19:23;20.92;;;5.22;;
51521;SDS011;37608;39.766;2.718;2022-08-19T09:21:48;2.78;;;1.05;;
51521;SDS011;37608;39.766;2.718;2022-08-19T09:24:15;18.58;;;4.05;;
51521;SDS011;37608;39.766;2.718;2022-08-19T09:26:40;8.82;;;1.40;;
51521;SDS011;37608;39.766;2.718;2022-08-19T09:29:08;1.75;;;1.00;;
51521;SDS011;37608;39.766;2.718;2022-08-19T09:31:35;6.90;;;1.88;;
51521;SDS011;37608;39.766;2.718;2022-08-19T09:34:00;19.13;;;4.47;;
51521;SDS011;37608;39.766;2.718;2022-08-19T09:36:29;2.50;;;0.60;;
51521;SDS011;37608;39.766;2.718;2022-08-19T09:38:57;1.40;;;0.80;;
51521;SDS011;37608;39.766;2.718;2022-08-19T09:41:24;2.67;;;1.65;;
51521;SDS011;37608;39.766;2.718;2022-08-19T09:43:50;3.75;;;1.15;;
51521;SDS011;37608;39.766;2.718;2022-08-19T09:46:20;2.00;;;1.10;;
51521;SDS011;37608;39.766;2.718;2022-08-19T09:48:46;1.20;;;0.70;;
51521;SDS011;37608;39.766;2.718;2022-08-19T09:51:14;9.07;;;1.50;;
51521;SDS011;37608;39.766;2.718;2022-08-19T09:53:40;4.78;;;0.50;;
51521;SDS011;37608;39.766;2.718;2022-08-19T09:56:06;0.55;;;0.30;;
51521;SDS011;37608;39.766;2.718;2022-08-19T09:58:32;1.65;;;0.52;;
51521;SDS011;37608;39.766;2.718;2022-08-19T10:00:58;5.55;;;1.02;;
51521;SDS011;37608;39.766;2.718;2022-08-19T10:03:24;1.27;;;0.75;;
51521;SDS011;37608;39.766;2.718;2022-08-19T10:05:50;1.35;;;0.68;;
51521;SDS011;37608;39.766;2.718;2022-08-19T10:08:16;1.52;;;0.57;;
51521;SDS011;37608;39.766;2.718;2022-08-19T10:10:42;0.57;;;0.47;;
51521;SDS011;37608;39.766;2.718;2022-08-19T10:13:11;0.85;;;0.40;;
51521;SDS011;37608;39.766;2.718;2022-08-19T10:15:36;4.07;;;1.40;;
51521;SDS011;37608;39.766;2.718;2022-08-19T10:18:04;0.10;;;0.10;;
51521;SDS011;37608;39.766;2.718;2022-08-19T10:20:32;1.73;;;0.80;;
51521;SDS011;37608;39.766;2.718;2022-08-19T10:22:57;7.70;;;0.50;;
51521;SDS011;37608;39.766;2.718;2022-08-19T10:25:24;4.28;;;0.60;;
51521;SDS011;37608;39.766;2.718;2022-08-19T10:27:51;3.90;;;1.40;;
51521;SDS011;37608;39.766;2.718;2022-08-19T10:30:16;23.52;;;21.20;;
51521;SDS011;37608;39.766;2.718;2022-08-19T10:32:41;2.17;;;1.70;;
51521;SDS011;37608;39.766;2.718;2022-08-19T10:35:07;4.82;;;0.55;;
51521;SDS011;37608;39.766;2.718;2022-08-19T10:37:33;5.72;;;0.70;;
51521;SDS011;37608;39.766;2.718;2022-08-19T10:39:59;1.75;;;0.55;;
51521;SDS011;37608;39.766;2.718;2022-08-19T10:42:24;1.83;;;0.98;;
51521;SDS011;37608;39.766;2.718;2022-08-19T10:44:49;2.10;;;1.15;;
51521;SDS011;37608;39.766;2.718;2022-08-19T10:47:15;2.20;;;1.05;;
51521;SDS011;37608;39.766;2.718;2022-08-19T10:49:40;2.05;;;1.38;;
51521;SDS011;37608;39.766;2.718;2022-08-19T10:52:24;0.63;;;0.40;;
51521;SDS011;37608;39.766;2.718;2022-08-19T10:54:59;5.85;;;0.98;;
51521;SDS011;37608;39.766;2.718;2022-08-19T10:57:43;2.00;;;0.57;;
51521;SDS011;37608;39.766;2.718;2022-08-19T11:00:09;5.50;;;0.95;;
51521;SDS011;37608;39.766;2.718;2022-08-19T11:02:34;1.42;;;0.82;;
51521;SDS011;37608;39.766;2.718;2022-08-19T11:04:59;2.75;;;0.65;;
51521;SDS011;37608;39.766;2.718;2022-08-19T11:07:25;1.95;;;1.23;;
51521;SDS011;37608;39.766;2.718;2022-08-19T11:09:51;3.28;;;0.80;;
51521;SDS011;37608;39.766;2.718;2022-08-19T11:12:16;10.10;;;2.33;;
51521;SDS011;37608;39.766;2.718;2022-08-19T11:14:42;1.75;;;0.75;;
51521;SDS011;37608;39.766;2.718;2022-08-19T11:17:07;5.40;;;1.20;;
51521;SDS011;37608;39.766;2.718;2022-08-19T11:19:33;0.80;;;0.40;;
51521;SDS011;37608;39.766;2.718;2022-08-19T11:21:59;0.65;;;0.40;;
51521;SDS011;37608;39.766;2.718;2022-08-19T11:24:26;2.08;;;0.45;;
51521;SDS011;37608;39.766;2.718;2022-08-19T11:26:53;5.97;;;0.30;;
51521;SDS011;37608;39.766;2.718;2022-08-19T11:29:22;1.35;;;0.60;;
51521;SDS011;37608;39.766;2.718;2022-08-19T11:31:50;1.65;;;0.38;;
51521;SDS011;37608;39.766;2.718;2022-08-19T11:34:18;1.27;;;0.40;;
51521;SDS011;37608;39.766;2.718;2022-08-19T11:36:45;0.40;;;0.22;;
51521;SDS011;37608;39.766;2.718;2022-08-19T11:39:11;4.50;;;0.63;;
51521;SDS011;37608;39.766;2.718;2022-08-19T11:41:37;0.82;;;0.43;;
51521;SDS011;37608;39.766;2.718;2022-08-19T11:44:03;1.98;;;1.02;;
51521;SDS011;37608;39.766;2.718;2022-08-19T11:46:29;3.58;;;0.95;;
51521;SDS011;37608;39.766;2.718;2022-08-19T11:48:56;1.77;;;0.60;;
51521;SDS011;37608;39.766;2.718;2022-08-19T11:51:22;3.78;;;1.10;;
51521;SDS011;37608;39.766;2.718;2022-08-19T11:53:49;3.28;;;0.40;;
51521;SDS011;37608;39.766;2.718;2022-08-19T11:56:15;0.77;;;0.50;;
51521;SDS011;37608;39.766;2.718;2022-08-19T11:58:41;0.95;;;0.50;;
51521;SDS011;37608;39.766;2.718;2022-08-19T12:01:10;0.70;;;0.28;;
51521;SDS011;37608;39.766;2.718;2022-08-19T12:03:36;5.35;;;0.80;;
51521;SDS011;37608;39.766;2.718;2022-08-19T12:06:09;1.45;;;0.50;;
51521;SDS011;37608;39.766;2.718;2022-08-19T12:08:35;1.52;;;0.65;;
51521;SDS011;37608;39.766;2.718;2022-08-19T12:11:00;0.52;;;0.25;;
51521;SDS011;37608;39.766;2.718;2022-08-19T12:13:29;0.90;;;0.55;;
51521;SDS011;37608;39.766;2.718;2022-08-19T12:15:55;3.30;;;0.50;;
51521;SDS011;37608;39.766;2.718;2022-08-19T12:18:21;0.82;;;0.45;;
51521;SDS011;37608;39.766;2.718;2022-08-19T12:20:46;3.30;;;1.10;;
51521;SDS011;37608;39.766;2.718;2022-08-19T12:23:12;1.88;;;0.73;;
51521;SDS011;37608;39.766;2.718;2022-08-19T12:25:43;4.55;;;0.73;;
51521;SDS011;37608;39.766;2.718;2022-08-19T12:28:13;5.05;;;1.98;;
51521;SDS011;37608;39.766;2.718;2022-08-19T12:30:38;2.50;;;1.33;;
51521;SDS011;37608;39.766;2.718;2022-08-19T12:33:03;2.50;;;0.90;;
51521;SDS011;37608;39.766;2.718;2022-08-19T12:35:29;3.35;;;2.30;;
51521;SDS011;37608;39.766;2.718;2022-08-19T12:37:55;9.98;;;4.25;;
51521;SDS011;37608;39.766;2.718;2022-08-19T12:40:20;2.97;;;0.82;;
51521;SDS011;37608;39.766;2.718;2022-08-19T12:42:46;0.82;;;0.40;;
51521;SDS011;37608;39.766;2.718;2022-08-19T12:45:12;1.50;;;0.68;;
51521;SDS011;37608;39.766;2.718;2022-08-19T12:47:38;2.20;;;0.70;;
51521;SDS011;37608;39.766;2.718;2022-08-19T12:50:03;1.10;;;0.40;;
51521;SDS011;37608;39.766;2.718;2022-08-19T12:52:33;0.50;;;0.20;;
51521;SDS011;37608;39.766;2.718;2022-08-19T12:55:01;0.65;;;0.35;;
51521;SDS011;37608;39.766;2.718;2022-08-19T12:57:27;9.55;;;1.42;;
51521;SDS011;37608;39.766;2.718;2022-08-19T12:59:53;1.85;;;1.20;;
51521;SDS011;37608;39.766;2.718;2022-08-19T13:02:19;2.38;;;0.93;;
51521;SDS011;37608;39.766;2.718;2022-08-19T13:04:45;1.48;;;0.85;;
51521;SDS011;37608;39.766;2.718;2022-08-19T13:07:10;1.52;;;0.77;;
51521;SDS011;37608;39.766;2.718;2022-08-19T13:09:35;0.95;;;0.60;;
51521;SDS011;37608;39.766;2.718;2022-08-19T13:12:01;4.22;;;0.63;;
51521;SDS011;37608;39.766;2.718;2022-08-19T13:14:28;2.45;;;0.50;;
51521;SDS011;37608;39.766;2.718;2022-08-19T13:16:55;2.78;;;0.65;;
51521;SDS011;37608;39.766;2.718;2022-08-19T13:19:22;0.75;;;0.40;;
51521;SDS011;37608;39.766;2.718;2022-08-19T13:21:51;9.45;;;1.05;;
51521;SDS011;37608;39.766;2.718;2022-08-19T13:24:19;2.08;;;0.80;;
51521;SDS011;37608;39.766;2.718;2022-08-19T13:26:44;1.70;;;0.82;;
51521;SDS011;37608;39.766;2.718;2022-08-19T13:29:09;0.80;;;0.43;;
51521;SDS011;37608;39.766;2.718;2022-08-19T13:31:53;2.97;;;1.17;;
51521;SDS011;37608;39.766;2.718;2022-08-19T13:34:37;2.35;;;0.65;;
51521;SDS011;37608;39.766;2.718;2022-08-19T13:37:03;1.50;;;0.63;;
51521;SDS011;37608;39.766;2.718;2022-08-19T13:39:29;0.35;;;0.25;;
51521;SDS011;37608;39.766;2.718;2022-08-19T13:41:54;0.68;;;0.57;;
51521;SDS011;37608;39.766;2.718;2022-08-19T13:44:20;0.80;;;0.30;;
51521;SDS011;37608;39.766;2.718;2022-08-19T13:46:46;0.93;;;0.68;;
51521;SDS011;37608;39.766;2.718;2022-08-19T13:49:12;4.60;;;1.65;;
51521;SDS011;37608;39.766;2.718;2022-08-19T13:51:38;2.70;;;1.10;;
51521;SDS011;37608;39.766;2.718;2022-08-19T13:54:05;3.22;;;0.90;;
51521;SDS011;37608;39.766;2.718;2022-08-19T13:56:32;5.35;;;1.02;;
51521;SDS011;37608;39.766;2.718;2022-08-19T13:58:57;3.70;;;0.28;;
51521;SDS011;37608;39.766;2.718;2022-08-19T14:01:23;1.13;;;0.50;;
51521;SDS011;37608;39.766;2.718;2022-08-19T14:03:49;2.05;;;0.63;;
51521;SDS011;37608;39.766;2.718;2022-08-19T14:06:14;1.85;;;0.75;;
51521;SDS011;37608;39.766;2.718;2022-08-19T14:08:39;3.40;;;0.70;;
51521;SDS011;37608;39.766;2.718;2022-08-19T14:11:06;4.45;;;0.40;;
51521;SDS011;37608;39.766;2.718;2022-08-19T14:13:32;1.98;;;0.75;;
51521;SDS011;37608;39.766;2.718;2022-08-19T14:15:58;6.25;;;0.90;;
51521;SDS011;37608;39.766;2.718;2022-08-19T14:18:24;1.38;;;0.30;;
51521;SDS011;37608;39.766;2.718;2022-08-19T14:20:50;2.13;;;0.40;;
51521;SDS011;37608;39.766;2.718;2022-08-19T14:23:15;1.02;;;0.40;;
51521;SDS011;37608;39.766;2.718;2022-08-19T14:25:41;4.68;;;2.33;;
51521;SDS011;37608;39.766;2.718;2022-08-19T14:28:06;3.28;;;1.05;;
51521;SDS011;37608;39.766;2.718;2022-08-19T14:30:33;1.38;;;0.90;;
51521;SDS011;37608;39.766;2.718;2022-08-19T14:32:59;1.05;;;0.38;;
51521;SDS011;37608;39.766;2.718;2022-08-19T14:35:26;1.52;;;0.68;;
51521;SDS011;37608;39.766;2.718;2022-08-19T14:37:51;2.70;;;1.30;;
51521;SDS011;37608;39.766;2.718;2022-08-19T14:40:21;0.77;;;0.30;;
51521;SDS011;37608;39.766;2.718;2022-08-19T14:42:50;1.75;;;0.50;;
51521;SDS011;37608;39.766;2.718;2022-08-19T14:45:15;1.65;;;0.70;;
51521;SDS011;37608;39.766;2.718;2022-08-19T14:47:41;2.80;;;1.63;;
51521;SDS011;37608;39.766;2.718;2022-08-19T14:50:07;9.25;;;5.32;;
51521;SDS011;37608;39.766;2.718;2022-08-19T14:52:33;4.18;;;1.92;;
51521;SDS011;37608;39.766;2.718;2022-08-19T14:54:58;2.20;;;0.88;;